sensor_id;sensor_type;location;lat;lon;timestamp;pressure;altitude;pressure_sealevel;temperature;humidity
43707;BME280;61348;53.392;-6.248;2023-07-09T00:00:49;100759.34;;;17.60;56.51
43707;BME280;61348;53.392;-6.248;2023-07-09T00:03:18;100766.09;;;17.55;56.71
43707;BME280;61348;53.392;-6.248;2023-07-09T00:05:48;100769.72;;;17.56;56.72
43707;BME280;61348;53.392;-6.248;2023-07-09T00:08:27;100776.13;;;17.56;57.00
43707;BME280;61348;53.392;-6.248;2023-07-09T00:10:55;100775.31;;;17.56;57.05
43707;BME280;61348;53.392;-6.248;2023-07-09T00:13:24;100774.09;;;17.53;57.20
43707;BME280;61348;53.392;-6.248;2023-07-09T00:15:53;100781.22;;;17.47;57.37
43707;BME280;61348;53.392;-6.248;2023-07-09T00:18:21;100789.63;;;17.44;57.22
43707;BME280;61348;53.392;-6.248;2023-07-09T00:20:48;100784.41;;;17.42;57.24
43707;BME280;61348;53.392;-6.248;2023-07-09T00:23:15;100774.81;;;17.43;57.15
43707;BME280;61348;53.392;-6.248;2023-07-09T00:25:43;100774.81;;;17.43;57.25
43707;BME280;61348;53.392;-6.248;2023-07-09T00:28:17;100782.81;;;17.41;57.43
43707;BME280;61348;53.392;-6.248;2023-07-09T00:30:45;100788.78;;;17.36;58.00
43707;BME280;61348;53.392;-6.248;2023-07-09T00:33:13;100786.75;;;17.37;58.24
43707;BME280;61348;53.392;-6.248;2023-07-09T00:35:42;100779.94;;;17.34;58.49
43707;BME280;61348;53.392;-6.248;2023-07-09T00:38:21;100775.56;;;17.33;58.74
43707;BME280;61348;53.392;-6.248;2023-07-09T00:41:04;100767.94;;;17.30;59.14
43707;BME280;61348;53.392;-6.248;2023-07-09T00:43:33;100779.53;;;17.29;59.50
43707;BME280;61348;53.392;-6.248;2023-07-09T00:49:04;100780.28;;;17.22;60.21
43707;BME280;61348;53.392;-6.248;2023-07-09T00:51:36;100780.69;;;17.21;60.39
43707;BME280;61348;53.392;-6.248;2023-07-09T00:54:28;100783.84;;;17.19;60.68
43707;BME280;61348;53.392;-6.248;2023-07-09T00:56:59;100782.25;;;17.18;60.66
43707;BME280;61348;53.392;-6.248;2023-07-09T00:59:28;100778.66;;;17.18;61.01
43707;BME280;61348;53.392;-6.248;2023-07-09T01:01:58;100774.66;;;17.15;61.20
43707;BME280;61348;53.392;-6.248;2023-07-09T01:04:27;100773.03;;;17.14;61.52
43707;BME280;61348;53.392;-6.248;2023-07-09T01:06:56;100769.41;;;17.14;61.77
43707;BME280;61348;53.392;-6.248;2023-07-09T01:09:24;100778.22;;;17.12;61.75
43707;BME280;61348;53.392;-6.248;2023-07-09T01:11:51;100775.38;;;17.09;61.91
43707;BME280;61348;53.392;-6.248;2023-07-09T01:14:24;100775.38;;;17.09;61.82
43707;BME280;61348;53.392;-6.248;2023-07-09T01:17:04;100767.75;;;17.02;61.71
43707;BME280;61348;53.392;-6.248;2023-07-09T01:19:39;100774.13;;;16.99;61.59
43707;BME280;61348;53.392;-6.248;2023-07-09T01:22:15;100773.28;;;16.95;61.52
43707;BME280;61348;53.392;-6.248;2023-07-09T01:27:27;100772.88;;;16.93;61.22
43707;BME280;61348;53.392;-6.248;2023-07-09T01:29:55;100777.66;;;16.89;61.09
43707;BME280;61348;53.392;-6.248;2023-07-09T01:32:23;100779.19;;;16.83;60.87
43707;BME280;61348;53.392;-6.248;2023-07-09T01:34:55;100782.34;;;16.78;60.76
43707;BME280;61348;53.392;-6.248;2023-07-09T01:37:25;100781.13;;;16.75;60.78
43707;BME280;61348;53.392;-6.248;2023-07-09T01:39:53;100774.66;;;16.68;60.89
43707;BME280;61348;53.392;-6.248;2023-07-09T01:42:22;100791.75;;;16.63;61.13
43707;BME280;61348;53.392;-6.248;2023-07-09T01:44:51;100782.91;;;16.54;61.11
43707;BME280;61348;53.392;-6.248;2023-07-09T01:47:18;100784.09;;;16.53;61.22
43707;BME280;61348;53.392;-6.248;2023-07-09T01:49:45;100782.03;;;16.50;61.22
43707;BME280;61348;53.392;-6.248;2023-07-09T01:52:15;100777.22;;;16.47;61.24
43707;BME280;61348;53.392;-6.248;2023-07-09T01:54:43;100773.56;;;16.42;61.53
43707;BME280;61348;53.392;-6.248;2023-07-09T01:57:24;100775.44;;;16.31;61.82
43707;BME280;61348;53.392;-6.248;2023-07-09T01:59:53;100769.03;;;16.27;62.09
43707;BME280;61348;53.392;-6.248;2023-07-09T02:02:22;100774.56;;;16.24;62.32
43707;BME280;61348;53.392;-6.248;2023-07-09T02:04:51;100768.19;;;16.23;62.50
43707;BME280;61348;53.392;-6.248;2023-07-09T02:07:19;100764.97;;;16.21;62.60
43707;BME280;61348;53.392;-6.248;2023-07-09T02:09:48;100774.53;;;16.20;63.06
43707;BME280;61348;53.392;-6.248;2023-07-09T02:12:16;100766.50;;;16.15;63.41
43707;BME280;61348;53.392;-6.248;2023-07-09T02:14:44;100761.69;;;16.12;63.63
43707;BME280;61348;53.392;-6.248;2023-07-09T02:17:13;100769.63;;;16.10;63.92
43707;BME280;61348;53.392;-6.248;2023-07-09T02:19:41;100775.56;;;16.05;64.26
43707;BME280;61348;53.392;-6.248;2023-07-09T02:22:08;100777.53;;;16.01;64.69
43707;BME280;61348;53.392;-6.248;2023-07-09T02:24:35;100782.28;;;16.01;65.11
43707;BME280;61348;53.392;-6.248;2023-07-09T02:27:05;100771.13;;;16.01;65.40
43707;BME280;61348;53.392;-6.248;2023-07-09T02:29:33;100774.28;;;15.99;65.54
43707;BME280;61348;53.392;-6.248;2023-07-09T02:32:01;100768.69;;;15.99;65.97
43707;BME280;61348;53.392;-6.248;2023-07-09T02:34:29;100776.66;;;15.97;66.32
43707;BME280;61348;53.392;-6.248;2023-07-09T02:36:57;100778.22;;;15.95;66.47
43707;BME280;61348;53.392;-6.248;2023-07-09T02:39:25;100778.63;;;15.93;66.73
43707;BME280;61348;53.392;-6.248;2023-07-09T02:41:53;100772.63;;;15.91;66.92
43707;BME280;61348;53.392;-6.248;2023-07-09T02:44:20;100771.81;;;15.91;67.37
43707;BME280;61348;53.392;-6.248;2023-07-09T02:46:47;100778.97;;;15.88;67.50
43707;BME280;61348;53.392;-6.248;2023-07-09T02:49:14;100766.16;;;15.87;67.73
43707;BME280;61348;53.392;-6.248;2023-07-09T02:51:41;100762.22;;;15.88;67.97
43707;BME280;61348;53.392;-6.248;2023-07-09T02:54:08;100770.13;;;15.86;68.38
43707;BME280;61348;53.392;-6.248;2023-07-09T02:56:35;100771.75;;;15.87;68.39
43707;BME280;61348;53.392;-6.248;2023-07-09T02:59:02;100768.56;;;15.89;68.52
43707;BME280;61348;53.392;-6.248;2023-07-09T03:01:29;100766.16;;;15.87;68.69
43707;BME280;61348;53.392;-6.248;2023-07-09T03:03:57;100762.16;;;15.84;68.90
43707;BME280;61348;53.392;-6.248;2023-07-09T03:06:26;100762.16;;;15.84;69.09
43707;BME280;61348;53.392;-6.248;2023-07-09T03:08:53;100764.13;;;15.84;69.46
43707;BME280;61348;53.392;-6.248;2023-07-09T03:11:21;100765.34;;;15.83;69.59
43707;BME280;61348;53.392;-6.248;2023-07-09T03:13:48;100764.13;;;15.80;69.90
43707;BME280;61348;53.392;-6.248;2023-07-09T03:16:16;100758.88;;;15.79;70.07
43707;BME280;61348;53.392;-6.248;2023-07-09T03:18:43;100755.69;;;15.77;70.03
43707;BME280;61348;53.392;-6.248;2023-07-09T03:21:10;100756.44;;;15.74;70.29
43707;BME280;61348;53.392;-6.248;2023-07-09T03:23:36;100754.78;;;15.69;70.44
43707;BME280;61348;53.392;-6.248;2023-07-09T03:26:04;100748.41;;;15.69;70.65
43707;BME280;61348;53.392;-6.248;2023-07-09T03:28:32;100750.31;;;15.65;70.94
43707;BME280;61348;53.392;-6.248;2023-07-09T03:30:58;100747.94;;;15.63;71.17
43707;BME280;61348;53.392;-6.248;2023-07-09T03:33:26;100746.69;;;15.61;71.43
43707;BME280;61348;53.392;-6.248;2023-07-09T03:35:53;100746.28;;;15.59;71.56
43707;BME280;61348;53.392;-6.248;2023-07-09T03:38:20;100751.41;;;15.57;71.71
43707;BME280;61348;53.392;-6.248;2023-07-09T03:40:52;100747.78;;;15.53;71.98
43707;BME280;61348;53.392;-6.248;2023-07-09T03:43:19;100741.78;;;15.51;72.18
43707;BME280;61348;53.392;-6.248;2023-07-09T03:45:47;100750.91;;;15.48;72.57
43707;BME280;61348;53.392;-6.248;2023-07-09T03:48:16;100747.22;;;15.44;72.68
43707;BME280;61348;53.392;-6.248;2023-07-09T03:50:44;100748.00;;;15.41;73.08
43707;BME280;61348;53.392;-6.248;2023-07-09T03:53:12;100751.97;;;15.40;73.29
43707;BME280;61348;53.392;-6.248;2023-07-09T03:55:39;100741.56;;;15.37;73.40
43707;BME280;61348;53.392;-6.248;2023-07-09T03:58:06;100747.94;;;15.37;73.59
43707;BME280;61348;53.392;-6.248;2023-07-09T04:00:33;100741.56;;;15.37;73.77
43707;BME280;61348;53.392;-6.248;2023-07-09T04:03:00;100739.19;;;15.39;73.91
43707;BME280;61348;53.392;-6.248;2023-07-09T04:05:27;100745.22;;;15.41;74.20
43707;BME280;61348;53.392;-6.248;2023-07-09T04:07:54;100741.56;;;15.37;74.09
43707;BME280;61348;53.392;-6.248;2023-07-09T04:10:21;100745.50;;;15.36;74.41
43707;BME280;61348;53.392;-6.248;2023-07-09T04:12:48;100741.13;;;15.35;74.55
43707;BME280;61348;53.392;-6.248;2023-07-09T04:15:15;100747.06;;;15.33;74.86
43707;BME280;61348;53.392;-6.248;2023-07-09T04:17:42;100746.28;;;15.33;74.76
43707;BME280;61348;53.392;-6.248;2023-07-09T04:20:09;100743.06;;;15.31;75.06
43707;BME280;61348;53.392;-6.248;2023-07-09T04:22:37;100747.03;;;15.30;75.24
43707;BME280;61348;53.392;-6.248;2023-07-09T04:25:06;100746.25;;;15.29;75.41
43707;BME280;61348;53.392;-6.248;2023-07-09T04:27:33;100751.88;;;15.33;75.48
43707;BME280;61348;53.392;-6.248;2023-07-09T04:30:00;100744.28;;;15.33;75.46
43707;BME280;61348;53.392;-6.248;2023-07-09T04:32:27;100751.88;;;15.33;75.80
43707;BME280;61348;53.392;-6.248;2023-07-09T04:34:54;100750.25;;;15.32;75.83
43707;BME280;61348;53.392;-6.248;2023-07-09T04:37:21;100746.28;;;15.33;76.12
43707;BME280;61348;53.392;-6.248;2023-07-09T04:39:48;100751.88;;;15.33;76.12
43707;BME280;61348;53.392;-6.248;2023-07-09T04:42:16;100747.84;;;15.30;76.36
43707;BME280;61348;53.392;-6.248;2023-07-09T04:44:45;100744.25;;;15.30;76.60
43707;BME280;61348;53.392;-6.248;2023-07-09T04:47:12;100750.25;;;15.32;76.57
43707;BME280;61348;53.392;-6.248;2023-07-09T04:49:39;100739.50;;;15.34;76.84
43707;BME280;61348;53.392;-6.248;2023-07-09T04:52:06;100744.34;;;15.37;77.07
43707;BME280;61348;53.392;-6.248;2023-07-09T04:54:33;100742.44;;;15.41;77.24
43707;BME280;61348;53.392;-6.248;2023-07-09T04:57:00;100741.66;;;15.44;77.42
43707;BME280;61348;53.392;-6.248;2023-07-09T04:59:28;100743.25;;;15.45;77.58
43707;BME280;61348;53.392;-6.248;2023-07-09T05:01:55;100737.03;;;15.51;77.82
43707;BME280;61348;53.392;-6.248;2023-07-09T05:04:22;100740.25;;;15.57;77.88
43707;BME280;61348;53.392;-6.248;2023-07-09T05:06:48;100745.09;;;15.60;77.94
43707;BME280;61348;53.392;-6.248;2023-07-09T05:09:15;100748.75;;;15.64;78.24
43707;BME280;61348;53.392;-6.248;2023-07-09T05:11:42;100739.22;;;15.68;78.25
43707;BME280;61348;53.392;-6.248;2023-07-09T05:14:09;100738.06;;;15.73;78.68
43707;BME280;61348;53.392;-6.248;2023-07-09T05:16:36;100738.13;;;15.76;78.67
43707;BME280;61348;53.392;-6.248;2023-07-09T05:19:03;100748.53;;;15.79;79.00
43707;BME280;61348;53.392;-6.248;2023-07-09T05:21:30;100738.25;;;15.87;78.88
43707;BME280;61348;53.392;-6.248;2023-07-09T05:23:57;100739.13;;;15.91;78.95
43707;BME280;61348;53.392;-6.248;2023-07-09T05:26:24;100739.56;;;15.97;79.05
43707;BME280;61348;53.392;-6.248;2023-07-09T05:28:51;100732.84;;;16.01;79.06
43707;BME280;61348;53.392;-6.248;2023-07-09T05:31:17;100736.88;;;16.07;79.12
43707;BME280;61348;53.392;-6.248;2023-07-09T05:33:46;100727.72;;;16.10;79.11
43707;BME280;61348;53.392;-6.248;2023-07-09T05:36:13;100726.63;;;16.18;79.25
43707;BME280;61348;53.392;-6.248;2023-07-09T05:38:43;100720.69;;;16.23;79.08
43707;BME280;61348;53.392;-6.248;2023-07-09T05:41:11;100722.72;;;16.26;79.05
43707;BME280;61348;53.392;-6.248;2023-07-09T05:43:38;100719.16;;;16.29;78.92
43707;BME280;61348;53.392;-6.248;2023-07-09T05:46:05;100712.81;;;16.32;79.10
43707;BME280;61348;53.392;-6.248;2023-07-09T05:48:32;100722.88;;;16.40;79.02
43707;BME280;61348;53.392;-6.248;2023-07-09T05:51:00;100720.53;;;16.50;78.91
43707;BME280;61348;53.392;-6.248;2023-07-09T05:53:26;100719.03;;;16.56;78.73
43707;BME280;61348;53.392;-6.248;2023-07-09T05:55:54;100717.50;;;16.62;78.59
43707;BME280;61348;53.392;-6.248;2023-07-09T05:58:22;100714.75;;;16.69;78.61
43707;BME280;61348;53.392;-6.248;2023-07-09T06:00:50;100712.00;;;16.72;78.35
43707;BME280;61348;53.392;-6.248;2023-07-09T06:03:22;100710.41;;;16.75;78.03
43707;BME280;61348;53.392;-6.248;2023-07-09T06:05:50;100720.41;;;16.79;77.84
43707;BME280;61348;53.392;-6.248;2023-07-09T06:08:17;100725.66;;;16.84;77.82
43707;BME280;61348;53.392;-6.248;2023-07-09T06:10:55;100720.13;;;16.91;77.68
43707;BME280;61348;53.392;-6.248;2023-07-09T06:13:22;100722.56;;;17.00;77.58
43707;BME280;61348;53.392;-6.248;2023-07-09T06:15:51;100719.84;;;17.07;77.63
43707;BME280;61348;53.392;-6.248;2023-07-09T06:18:19;100709.91;;;17.17;77.38
43707;BME280;61348;53.392;-6.248;2023-07-09T06:20:51;100709.97;;;17.27;77.29
43707;BME280;61348;53.392;-6.248;2023-07-09T06:23:18;100719.25;;;17.42;77.17
43707;BME280;61348;53.392;-6.248;2023-07-09T06:25:46;100718.13;;;17.57;76.98
43707;BME280;61348;53.392;-6.248;2023-07-09T06:28:19;100712.59;;;17.68;76.82
43707;BME280;61348;53.392;-6.248;2023-07-09T06:30:46;100715.03;;;17.80;76.56
43707;BME280;61348;53.392;-6.248;2023-07-09T06:33:15;100719.50;;;17.95;76.35
43707;BME280;61348;53.392;-6.248;2023-07-09T06:35:49;100714.31;;;18.11;75.70
43707;BME280;61348;53.392;-6.248;2023-07-09T06:38:17;100717.94;;;18.22;75.31
43707;BME280;61348;53.392;-6.248;2023-07-09T06:40:45;100721.56;;;18.33;74.86
43707;BME280;61348;53.392;-6.248;2023-07-09T06:43:12;100719.59;;;18.37;74.46
43707;BME280;61348;53.392;-6.248;2023-07-09T06:45:48;100725.97;;;18.38;74.10
43707;BME280;61348;53.392;-6.248;2023-07-09T06:48:15;100718.38;;;18.35;73.79
43707;BME280;61348;53.392;-6.248;2023-07-09T06:50:42;100724.34;;;18.30;73.73
43707;BME280;61348;53.392;-6.248;2023-07-09T06:53:10;100716.75;;;18.27;73.62
43707;BME280;61348;53.392;-6.248;2023-07-09T06:55:36;100719.13;;;18.24;73.47
43707;BME280;61348;53.392;-6.248;2023-07-09T06:58:03;100718.38;;;18.24;73.78
43707;BME280;61348;53.392;-6.248;2023-07-09T07:00:30;100724.75;;;18.24;73.73
43707;BME280;61348;53.392;-6.248;2023-07-09T07:02:57;100716.34;;;18.17;73.44
43707;BME280;61348;53.392;-6.248;2023-07-09T07:05:25;100718.31;;;18.06;73.36
43707;BME280;61348;53.392;-6.248;2023-07-09T07:07:53;100709.91;;;17.99;73.47
43707;BME280;61348;53.392;-6.248;2023-07-09T07:10:20;100713.50;;;18.00;73.79
43707;BME280;61348;53.392;-6.248;2023-07-09T07:12:48;100710.72;;;18.10;73.87
43707;BME280;61348;53.392;-6.248;2023-07-09T07:15:17;100717.56;;;18.31;73.63
43707;BME280;61348;53.392;-6.248;2023-07-09T07:17:44;100717.97;;;18.47;73.61
43707;BME280;61348;53.392;-6.248;2023-07-09T07:20:17;100714.81;;;18.55;73.86
43707;BME280;61348;53.392;-6.248;2023-07-09T07:22:44;100710.41;;;18.65;74.35
43707;BME280;61348;53.392;-6.248;2023-07-09T07:25:11;100705.59;;;18.72;74.69
43707;BME280;61348;53.392;-6.248;2023-07-09T07:27:38;100705.59;;;18.79;75.25
43707;BME280;61348;53.392;-6.248;2023-07-09T07:30:07;100697.16;;;18.94;75.69
43707;BME280;61348;53.392;-6.248;2023-07-09T07:32:47;100703.13;;;19.17;75.91
43707;BME280;61348;53.392;-6.248;2023-07-09T07:35:16;100701.47;;;19.44;76.70
43707;BME280;61348;53.392;-6.248;2023-07-09T07:37:43;100701.06;;;19.56;76.23
43707;BME280;61348;53.392;-6.248;2023-07-09T07:40:10;100713.44;;;19.62;76.04
43707;BME280;61348;53.392;-6.248;2023-07-09T07:42:37;100723.84;;;19.72;76.24
43707;BME280;61348;53.392;-6.248;2023-07-09T07:45:05;100724.63;;;19.76;75.79
43707;BME280;61348;53.392;-6.248;2023-07-09T07:47:34;100723.00;;;19.82;75.16
43707;BME280;61348;53.392;-6.248;2023-07-09T07:50:04;100727.47;;;19.69;74.27
43707;BME280;61348;53.392;-6.248;2023-07-09T07:52:31;100727.91;;;19.57;74.03
43707;BME280;61348;53.392;-6.248;2023-07-09T07:54:58;100714.72;;;19.47;74.32
43707;BME280;61348;53.392;-6.248;2023-07-09T07:57:25;100707.31;;;19.88;74.52
43707;BME280;61348;53.392;-6.248;2023-07-09T07:59:52;100713.22;;;20.12;73.86
43707;BME280;61348;53.392;-6.248;2023-07-09T08:02:20;100707.38;;;20.47;73.77
43707;BME280;61348;53.392;-6.248;2023-07-09T08:04:47;100718.34;;;20.82;72.88
43707;BME280;61348;53.392;-6.248;2023-07-09T08:07:14;100717.31;;;21.10;72.08
43707;BME280;61348;53.392;-6.248;2023-07-09T08:09:41;100718.75;;;21.25;71.54
43707;BME280;61348;53.392;-6.248;2023-07-09T08:12:09;100726.88;;;21.16;70.61
43707;BME280;61348;53.392;-6.248;2023-07-09T08:14:44;100725.50;;;20.90;70.52
43707;BME280;61348;53.392;-6.248;2023-07-09T08:17:11;100712.03;;;20.68;70.39
43707;BME280;61348;53.392;-6.248;2023-07-09T08:19:46;100712.16;;;20.50;70.75
43707;BME280;61348;53.392;-6.248;2023-07-09T08:22:14;100708.06;;;20.65;70.85
43707;BME280;61348;53.392;-6.248;2023-07-09T08:24:42;100717.38;;;20.99;69.97
43707;BME280;61348;53.392;-6.248;2023-07-09T08:27:10;100714.09;;;21.08;68.78
43707;BME280;61348;53.392;-6.248;2023-07-09T08:29:36;100727.13;;;20.88;69.04
43707;BME280;61348;53.392;-6.248;2023-07-09T08:32:04;100725.47;;;20.46;69.02
43707;BME280;61348;53.392;-6.248;2023-07-09T08:34:31;100730.09;;;20.12;69.49
43707;BME280;61348;53.392;-6.248;2023-07-09T08:36:58;100724.22;;;19.78;69.92
43707;BME280;61348;53.392;-6.248;2023-07-09T08:39:25;100729.88;;;19.67;70.11
43707;BME280;61348;53.392;-6.248;2023-07-09T08:41:57;100725.28;;;20.05;69.82
43707;BME280;61348;53.392;-6.248;2023-07-09T08:50:09;100722.28;;;19.57;68.74
43707;BME280;61348;53.392;-6.248;2023-07-09T08:52:41;100723.56;;;19.17;68.79
43707;BME280;61348;53.392;-6.248;2023-07-09T08:55:20;100718.41;;;18.91;69.32
43707;BME280;61348;53.392;-6.248;2023-07-09T08:57:50;100716.00;;;18.72;69.53
43707;BME280;61348;53.392;-6.248;2023-07-09T09:00:34;100730.44;;;18.49;69.86
43707;BME280;61348;53.392;-6.248;2023-07-09T09:03:11;100720.34;;;18.27;70.71
43707;BME280;61348;53.392;-6.248;2023-07-09T09:05:43;100711.94;;;18.13;70.58
43707;BME280;61348;53.392;-6.248;2023-07-09T09:14:06;100711.88;;;17.99;71.47
43707;BME280;61348;53.392;-6.248;2023-07-09T09:16:38;100717.50;;;17.99;71.73
43707;BME280;61348;53.392;-6.248;2023-07-09T09:19:27;100717.50;;;18.06;71.87
43707;BME280;61348;53.392;-6.248;2023-07-09T09:22:05;100717.16;;;18.43;71.64
43707;BME280;61348;53.392;-6.248;2023-07-09T09:24:36;100722.41;;;18.62;71.01
43707;BME280;61348;53.392;-6.248;2023-07-09T09:27:03;100722.00;;;18.99;70.59
43707;BME280;61348;53.392;-6.248;2023-07-09T09:29:31;100719.16;;;19.37;70.33
43707;BME280;61348;53.392;-6.248;2023-07-09T09:31:59;100712.22;;;20.43;69.36
43707;BME280;61348;53.392;-6.248;2023-07-09T09:34:29;100726.59;;;21.78;67.02
43707;BME280;61348;53.392;-6.248;2023-07-09T09:36:58;100725.28;;;22.16;65.20
43707;BME280;61348;53.392;-6.248;2023-07-09T09:39:25;100736.38;;;22.30;64.16
43707;BME280;61348;53.392;-6.248;2023-07-09T09:41:58;100722.03;;;21.91;64.95
43707;BME280;61348;53.392;-6.248;2023-07-09T09:44:27;100730.59;;;21.47;65.35
43707;BME280;61348;53.392;-6.248;2023-07-09T09:46:57;100730.22;;;21.00;65.85
43707;BME280;61348;53.392;-6.248;2023-07-09T09:49:27;100729.03;;;20.50;66.75
43707;BME280;61348;53.392;-6.248;2023-07-09T09:51:54;100737.81;;;19.93;68.01
43707;BME280;61348;53.392;-6.248;2023-07-09T09:54:27;100736.78;;;19.41;68.86
43707;BME280;61348;53.392;-6.248;2023-07-09T09:56:57;100728.41;;;18.99;69.98
43707;BME280;61348;53.392;-6.248;2023-07-09T09:59:29;100723.63;;;18.78;70.72
43707;BME280;61348;53.392;-6.248;2023-07-09T10:02:02;100728.41;;;18.64;71.22
43707;BME280;61348;53.392;-6.248;2023-07-09T10:04:29;100718.41;;;18.52;71.84
43707;BME280;61348;53.392;-6.248;2023-07-09T10:07:05;100728.03;;;18.51;72.09
43707;BME280;61348;53.392;-6.248;2023-07-09T10:09:39;100724.41;;;18.61;72.77
43707;BME280;61348;53.392;-6.248;2023-07-09T10:17:58;100707.06;;;21.27;68.46
43707;BME280;61348;53.392;-6.248;2023-07-09T10:20:37;100721.25;;;22.44;67.15
43707;BME280;61348;53.392;-6.248;2023-07-09T10:25:49;100719.50;;;23.46;65.30
43707;BME280;61348;53.392;-6.248;2023-07-09T10:37:08;100714.41;;;22.45;64.98
43707;BME280;61348;53.392;-6.248;2023-07-09T10:39:47;100707.16;;;22.71;63.91
43707;BME280;61348;53.392;-6.248;2023-07-09T10:42:35;100698.66;;;22.48;64.17
43707;BME280;61348;53.392;-6.248;2023-07-09T10:45:15;100686.75;;;22.06;64.14
43707;BME280;61348;53.392;-6.248;2023-07-09T10:47:51;100690.78;;;21.75;64.58
43707;BME280;61348;53.392;-6.248;2023-07-09T10:50:33;100684.16;;;21.92;64.82
43707;BME280;61348;53.392;-6.248;2023-07-09T10:53:09;100690.06;;;22.28;63.81
43707;BME280;61348;53.392;-6.248;2023-07-09T10:55:47;100672.97;;;22.38;63.63
43707;BME280;61348;53.392;-6.248;2023-07-09T10:58:25;100669.03;;;22.32;63.48
43707;BME280;61348;53.392;-6.248;2023-07-09T11:00:54;100678.50;;;22.45;63.25
43707;BME280;61348;53.392;-6.248;2023-07-09T11:03:40;100691.13;;;22.64;62.88
43707;BME280;61348;53.392;-6.248;2023-07-09T11:06:16;100693.53;;;22.66;62.66
43707;BME280;61348;53.392;-6.248;2023-07-09T11:08:47;100680.50;;;22.72;62.68
43707;BME280;61348;53.392;-6.248;2023-07-09T11:13:59;100673.31;;;22.44;62.95
43707;BME280;61348;53.392;-6.248;2023-07-09T11:16:32;100677.25;;;21.97;63.45
43707;BME280;61348;53.392;-6.248;2023-07-09T11:19:04;100666.00;;;21.63;64.08
43707;BME280;61348;53.392;-6.248;2023-07-09T11:21:33;100659.84;;;21.41;64.60
43707;BME280;61348;53.392;-6.248;2023-07-09T11:24:02;100652.81;;;21.22;65.21
43707;BME280;61348;53.392;-6.248;2023-07-09T11:26:32;100646.59;;;21.01;65.55
43707;BME280;61348;53.392;-6.248;2023-07-09T11:31:41;100655.13;;;20.94;66.40
43707;BME280;61348;53.392;-6.248;2023-07-09T11:36:56;100674.91;;;21.58;65.07
43707;BME280;61348;53.392;-6.248;2023-07-09T11:39:42;100670.03;;;21.62;64.77
43707;BME280;61348;53.392;-6.248;2023-07-09T11:42:25;100666.66;;;21.74;64.35
43707;BME280;61348;53.392;-6.248;2023-07-09T11:45:13;100667.50;;;21.71;63.54
43707;BME280;61348;53.392;-6.248;2023-07-09T11:47:55;100665.88;;;21.73;63.20
43707;BME280;61348;53.392;-6.248;2023-07-09T11:50:29;100682.81;;;21.70;62.81
43707;BME280;61348;53.392;-6.248;2023-07-09T11:53:00;100679.91;;;21.47;62.76
43707;BME280;61348;53.392;-6.248;2023-07-09T11:55:33;100692.97;;;21.27;62.21
43707;BME280;61348;53.392;-6.248;2023-07-09T11:58:05;100680.34;;;21.04;62.38
43707;BME280;61348;53.392;-6.248;2023-07-09T12:00:58;100680.50;;;20.87;62.37
43707;BME280;61348;53.392;-6.248;2023-07-09T12:03:33;100681.94;;;20.61;62.53
43707;BME280;61348;53.392;-6.248;2023-07-09T12:06:16;100687.75;;;20.40;62.72
43707;BME280;61348;53.392;-6.248;2023-07-09T12:08:45;100693.88;;;20.28;63.37
43707;BME280;61348;53.392;-6.248;2023-07-09T12:11:25;100690.25;;;20.24;63.89
43707;BME280;61348;53.392;-6.248;2023-07-09T12:13:53;100692.25;;;20.27;63.93
43707;BME280;61348;53.392;-6.248;2023-07-09T12:18:52;100683.66;;;20.48;63.89
43707;BME280;61348;53.392;-6.248;2023-07-09T12:21:20;100695.06;;;20.78;63.12
43707;BME280;61348;53.392;-6.248;2023-07-09T12:23:47;100685.94;;;21.08;62.51
43707;BME280;61348;53.392;-6.248;2023-07-09T12:26:16;100685.25;;;21.34;61.58
43707;BME280;61348;53.392;-6.248;2023-07-09T12:28:52;100673.13;;;21.41;61.27
43707;BME280;61348;53.392;-6.248;2023-07-09T12:31:26;100670.47;;;21.60;61.40
43707;BME280;61348;53.392;-6.248;2023-07-09T12:33:55;100679.41;;;21.82;61.07
43707;BME280;61348;53.392;-6.248;2023-07-09T12:36:24;100663.81;;;22.08;60.23
43707;BME280;61348;53.392;-6.248;2023-07-09T12:38:55;100671.94;;;22.29;60.03
43707;BME280;61348;53.392;-6.248;2023-07-09T12:41:44;100661.56;;;22.45;59.62
43707;BME280;61348;53.392;-6.248;2023-07-09T12:44:21;100664.81;;;22.71;59.51
43707;BME280;61348;53.392;-6.248;2023-07-09T12:46:51;100660.94;;;22.84;59.37
43707;BME280;61348;53.392;-6.248;2023-07-09T12:51:57;100651.91;;;22.47;58.63
43707;BME280;61348;53.392;-6.248;2023-07-09T12:54:24;100657.94;;;22.22;59.36
43707;BME280;61348;53.392;-6.248;2023-07-09T12:56:53;100664.56;;;22.08;59.47
43707;BME280;61348;53.392;-6.248;2023-07-09T12:59:23;100657.44;;;22.00;59.96
43707;BME280;61348;53.392;-6.248;2023-07-09T13:02:01;100649.88;;;21.97;60.05
43707;BME280;61348;53.392;-6.248;2023-07-09T13:04:34;100646.09;;;22.07;59.86
43707;BME280;61348;53.392;-6.248;2023-07-09T13:07:03;100654.75;;;22.43;59.85
43707;BME280;61348;53.392;-6.248;2023-07-09T13:09:31;100656.47;;;22.64;59.32
43707;BME280;61348;53.392;-6.248;2023-07-09T13:11:58;100654.25;;;22.75;58.70
43707;BME280;61348;53.392;-6.248;2023-07-09T13:14:29;100649.91;;;22.70;58.61
43707;BME280;61348;53.392;-6.248;2023-07-09T13:17:04;100652.06;;;22.63;58.87
43707;BME280;61348;53.392;-6.248;2023-07-09T13:19:31;100655.16;;;22.45;59.17
43707;BME280;61348;53.392;-6.248;2023-07-09T13:21:58;100651.44;;;22.25;59.64
43707;BME280;61348;53.392;-6.248;2023-07-09T13:24:28;100657.41;;;22.04;60.27
43707;BME280;61348;53.392;-6.248;2023-07-09T13:27:00;100647.56;;;21.85;60.98
43707;BME280;61348;53.392;-6.248;2023-07-09T13:29:28;100649.00;;;21.70;61.47
43707;BME280;61348;53.392;-6.248;2023-07-09T13:31:55;100653.03;;;21.69;62.03
43707;BME280;61348;53.392;-6.248;2023-07-09T13:34:26;100636.13;;;21.69;62.21
43707;BME280;61348;53.392;-6.248;2023-07-09T13:36:54;100639.34;;;21.71;62.24
43707;BME280;61348;53.392;-6.248;2023-07-09T13:39:23;100645.22;;;21.80;62.29
43707;BME280;61348;53.392;-6.248;2023-07-09T13:41:55;100648.69;;;21.95;62.19